createdAt,value
2017-09-14T00:00:04.240Z,91.45
2017-09-14T00:00:30.367Z,91.83
2017-09-14T00:00:56.478Z,91.45
2017-09-14T00:01:22.604Z,91.35
2017-09-14T00:01:48.727Z,91.64
2017-09-14T00:02:14.850Z,91.25
2017-09-14T00:02:40.972Z,91.64
2017-09-14T00:03:07.090Z,91.64
2017-09-14T00:03:33.213Z,91.74
2017-09-14T00:03:59.335Z,92.21
2017-09-14T00:04:25.463Z,93.55
2017-09-14T00:04:51.577Z,93.55
2017-09-14T00:05:17.694Z,93.74
2017-09-14T00:05:43.824Z,94.41
2017-09-14T00:06:09.950Z,94.79
2017-09-14T00:06:36.065Z,94.51
2017-09-14T00:07:02.193Z,94.89
2017-09-14T00:07:28.313Z,94.89
2017-09-14T00:07:54.436Z,94.79
2017-09-14T00:08:20.554Z,94.7
2017-09-14T00:08:46.679Z,94.7
2017-09-14T00:09:12.805Z,94.79
2017-09-14T00:09:38.922Z,93.93
2017-09-14T00:10:05.050Z,93.16
2017-09-14T00:10:31.166Z,93.36
2017-09-14T00:10:57.292Z,93.45
2017-09-14T00:11:23.420Z,93.45
2017-09-14T00:11:49.536Z,93.65
2017-09-14T00:12:15.663Z,93.74
2017-09-14T00:12:41.781Z,93.74
2017-09-14T00:13:07.900Z,93.84
2017-09-14T00:13:34.029Z,94.02
2017-09-14T00:14:00.146Z,93.65
2017-09-14T00:14:26.273Z,93.55
2017-09-14T00:14:52.397Z,93.26
2017-09-14T00:15:18.517Z,93.45
2017-09-14T00:15:44.642Z,93.55
2017-09-14T00:16:10.759Z,93.88
2017-09-14T00:16:36.887Z,93.74
2017-09-14T00:17:03.006Z,93.65
2017-09-14T00:17:29.127Z,93.84
2017-09-14T00:17:55.249Z,93.65
2017-09-14T00:18:21.373Z,93.45
2017-09-14T00:18:47.498Z,93.02
2017-09-14T00:19:13.618Z,93.6
2017-09-14T00:19:39.745Z,93.45
2017-09-14T00:20:05.863Z,93.55
2017-09-14T00:20:31.989Z,93.65
2017-09-14T00:20:58.115Z,92.74
2017-09-14T00:21:24.237Z,93.74
2017-09-14T00:21:50.361Z,93.6
2017-09-14T00:22:16.479Z,93.31
2017-09-14T00:22:42.606Z,93.12
2017-09-14T00:23:08.728Z,94.07
2017-09-14T00:23:34.854Z,93.41
2017-09-14T00:24:00.973Z,93.31
2017-09-14T00:24:27.090Z,93.31
2017-09-14T00:24:53.215Z,93.88
2017-09-14T00:25:19.333Z,93.31
2017-09-14T00:25:45.485Z,93.31
2017-09-14T00:26:11.606Z,93.6
2017-09-14T00:26:37.725Z,93.6
2017-09-14T00:27:03.848Z,93.31
2017-09-14T00:27:29.969Z,93.6
2017-09-14T00:27:56.088Z,93.5
2017-09-14T00:28:22.214Z,93.5
2017-09-14T00:28:48.335Z,93.31
2017-09-14T00:29:14.455Z,93.79
2017-09-14T00:29:40.584Z,93.79
2017-09-14T00:30:06.716Z,93.7
2017-09-14T00:30:32.856Z,93.12
2017-09-14T00:30:58.987Z,93.12
2017-09-14T00:31:25.099Z,93.41
2017-09-14T00:31:51.217Z,93.79
2017-09-14T00:32:17.339Z,93.7
2017-09-14T00:32:43.460Z,93.88
2017-09-14T00:33:09.583Z,93.7
2017-09-14T00:33:35.711Z,93.7
2017-09-14T00:34:01.829Z,93.79
2017-09-14T00:34:27.956Z,93.79
2017-09-14T00:34:54.072Z,93.88
2017-09-14T00:35:20.196Z,93.98
2017-09-14T00:35:46.323Z,93.7
2017-09-14T00:36:12.441Z,94.07
2017-09-14T00:36:38.582Z,93.98
2017-09-14T00:37:04.707Z,94.07
2017-09-14T00:37:30.826Z,93.98
2017-09-14T00:37:56.953Z,93.79
2017-09-14T00:38:23.076Z,93.98
2017-09-14T00:38:49.199Z,93.21
2017-09-14T00:39:15.322Z,93.12
2017-09-14T00:39:41.440Z,93.21
2017-09-14T00:40:07.563Z,93.41
2017-09-14T00:40:33.690Z,93.6
2017-09-14T00:40:59.808Z,92.93
2017-09-14T00:41:25.936Z,93.6
2017-09-14T00:41:52.060Z,93.7
2017-09-14T00:42:18.176Z,92.93
2017-09-14T00:42:44.304Z,92.83
2017-09-14T00:43:10.422Z,93.41
2017-09-14T00:43:36.551Z,93.6
2017-09-14T00:44:02.664Z,93.6
2017-09-14T00:44:28.783Z,93.41
2017-09-14T00:44:54.911Z,92.83
2017-09-14T00:45:21.034Z,93.6
2017-09-14T00:45:47.150Z,93.6
2017-09-14T00:46:13.278Z,93.5
2017-09-14T00:46:39.398Z,93.5
2017-09-14T00:47:05.517Z,93.5
2017-09-14T00:47:33.053Z,93.41
2017-09-14T00:47:59.181Z,93.02
2017-09-14T00:48:25.306Z,93.5
2017-09-14T00:48:51.452Z,93.6
2017-09-14T00:49:17.574Z,93.7
2017-09-14T00:49:43.689Z,92.74
2017-09-14T00:50:09.814Z,93.21
2017-09-14T00:50:35.952Z,93.02
2017-09-14T00:51:02.052Z,92.83
2017-09-14T00:51:28.174Z,92.64
2017-09-14T00:51:54.301Z,93.41
2017-09-14T00:52:20.443Z,93.31
2017-09-14T00:52:46.570Z,93.12
2017-09-14T00:53:12.683Z,93.31
2017-09-14T00:53:38.815Z,93.02
2017-09-14T00:54:04.963Z,93.12
2017-09-14T00:54:31.082Z,93.12
2017-09-14T00:54:57.201Z,93.6
2017-09-14T00:55:23.328Z,93.31
2017-09-14T00:55:49.446Z,92.93
2017-09-14T00:56:15.568Z,93.12
2017-09-14T00:56:41.688Z,93.41
2017-09-14T00:57:07.832Z,92.74
2017-09-14T00:57:33.939Z,93.6
2017-09-14T00:58:00.056Z,93.02
2017-09-14T00:58:26.201Z,93.88
2017-09-14T00:58:52.328Z,93.6
2017-09-14T00:59:18.451Z,93.41
2017-09-14T00:59:44.593Z,93.02
2017-09-14T01:00:10.713Z,93.5
2017-09-14T01:00:36.837Z,93.5
2017-09-14T01:01:02.960Z,93.12
2017-09-14T01:01:29.079Z,93.31
2017-09-14T01:01:55.200Z,93.12
2017-09-14T01:02:21.327Z,93.12
2017-09-14T01:02:47.450Z,92.93
2017-09-14T01:03:13.566Z,93.5
2017-09-14T01:03:39.737Z,93.5
2017-09-14T01:04:05.833Z,93.41
2017-09-14T01:04:31.983Z,93.12
2017-09-14T01:04:58.100Z,93.5
2017-09-14T01:05:24.220Z,93.41
2017-09-14T01:05:50.346Z,93.5
2017-09-14T01:06:16.469Z,93.31
2017-09-14T01:06:42.614Z,93.79
2017-09-14T01:07:08.732Z,93.98
2017-09-14T01:07:34.862Z,93.88
2017-09-14T01:08:00.995Z,93.88
2017-09-14T01:08:27.122Z,93.88
2017-09-14T01:08:53.258Z,93.88
2017-09-14T01:09:19.378Z,93.7
2017-09-14T01:09:45.503Z,93.98
2017-09-14T01:10:11.622Z,93.88
2017-09-14T01:10:37.747Z,93.88
2017-09-14T01:11:03.867Z,93.6
2017-09-14T01:11:29.985Z,93.74
2017-09-14T01:11:56.105Z,93.98
2017-09-14T01:12:22.232Z,93.79
2017-09-14T01:12:48.351Z,93.12
2017-09-14T01:13:14.473Z,93.74
2017-09-14T01:13:40.603Z,93.84
2017-09-14T01:14:06.721Z,93.98
2017-09-14T01:14:32.843Z,93.79
2017-09-14T01:14:58.961Z,93.88
2017-09-14T01:15:25.087Z,93.98
2017-09-14T01:15:51.211Z,94.55
2017-09-14T01:16:17.330Z,94.55
2017-09-14T01:16:43.457Z,94.84
2017-09-14T01:17:09.574Z,94.74
2017-09-14T01:17:35.695Z,94.84
2017-09-14T01:18:01.818Z,94.84
2017-09-14T01:18:27.945Z,94.41
2017-09-14T01:18:54.065Z,94.36
2017-09-14T01:19:20.191Z,94.93
2017-09-14T01:19:46.316Z,94.36
2017-09-14T01:20:12.434Z,95.12
2017-09-14T01:20:38.560Z,94.93
2017-09-14T01:21:04.677Z,94.74
2017-09-14T01:21:30.805Z,95.32
2017-09-14T01:21:56.952Z,95.32
2017-09-14T01:22:23.068Z,95.12
2017-09-14T01:22:49.212Z,95.51
2017-09-14T01:23:15.338Z,95.22
2017-09-14T01:23:41.454Z,94.98
2017-09-14T01:24:07.580Z,94.74
2017-09-14T01:24:33.706Z,95.22
2017-09-14T01:24:59.826Z,95.61
2017-09-14T01:25:25.945Z,95.32
2017-09-14T01:25:52.071Z,95.98
2017-09-14T01:26:18.194Z,95.7
2017-09-14T01:26:44.311Z,95.61
2017-09-14T01:27:10.438Z,95.61
2017-09-14T01:27:36.552Z,96.46
2017-09-14T01:28:02.673Z,95.89
2017-09-14T01:28:28.798Z,95.89
2017-09-14T01:28:54.916Z,95.98
2017-09-14T01:29:21.037Z,96.08
2017-09-14T01:29:47.191Z,96.46
2017-09-14T01:30:13.308Z,95.79
2017-09-14T01:30:39.432Z,96.08
2017-09-14T01:31:05.556Z,96.08
2017-09-14T01:31:31.673Z,95.7
2017-09-14T01:31:57.803Z,95.79
2017-09-14T01:32:23.930Z,95.79
2017-09-14T01:32:50.050Z,96.37
2017-09-14T01:33:16.175Z,96.37
2017-09-14T01:33:42.294Z,96.27
2017-09-14T01:34:08.416Z,95.98
2017-09-14T01:34:34.529Z,96.08
2017-09-14T01:35:00.656Z,96.17
2017-09-14T01:35:26.779Z,96.27
2017-09-14T01:35:52.896Z,96.46
2017-09-14T01:36:19.019Z,96.56
2017-09-14T01:36:45.140Z,96.08
2017-09-14T01:37:11.270Z,96.46
2017-09-14T01:37:37.395Z,95.89
2017-09-14T01:38:03.524Z,96.27
2017-09-14T01:38:29.641Z,96.27
2017-09-14T01:38:55.790Z,96.17
2017-09-14T01:39:21.917Z,96.37
2017-09-14T01:39:48.034Z,96.37
2017-09-14T01:40:14.155Z,95.98
2017-09-14T01:40:40.282Z,96.17
2017-09-14T01:41:06.399Z,96.08
2017-09-14T01:41:32.523Z,96.08
2017-09-14T01:41:58.643Z,95.98
2017-09-14T01:42:24.767Z,96.37
2017-09-14T01:42:50.892Z,96.37
2017-09-14T01:43:17.009Z,96.46
2017-09-14T01:43:43.129Z,96.46
2017-09-14T01:44:09.256Z,96.17
2017-09-14T01:44:35.374Z,96.08
2017-09-14T01:45:01.499Z,96.17
2017-09-14T01:45:27.615Z,96.17
2017-09-14T01:45:53.744Z,96.08
2017-09-14T01:46:19.889Z,96.17
2017-09-14T01:46:46.008Z,96.17
2017-09-14T01:47:12.129Z,96.08
2017-09-14T01:47:38.258Z,96.17
2017-09-14T01:48:04.384Z,96.08
2017-09-14T01:48:30.502Z,96.27
2017-09-14T01:48:56.627Z,96.46
2017-09-14T01:49:22.745Z,95.7
2017-09-14T01:49:48.867Z,95.79
2017-09-14T01:50:14.989Z,95.89
2017-09-14T01:50:41.115Z,96.08
2017-09-14T01:51:07.242Z,95.32
2017-09-14T01:51:33.361Z,95.41
2017-09-14T01:51:59.494Z,95.32
2017-09-14T01:52:25.610Z,95.51
2017-09-14T01:52:51.728Z,95.61
2017-09-14T01:53:17.856Z,95.61
2017-09-14T01:53:43.973Z,95.17
2017-09-14T01:54:10.120Z,95.41
2017-09-14T01:54:36.243Z,95.46
2017-09-14T01:55:02.370Z,95.51
2017-09-14T01:55:28.484Z,95.32
2017-09-14T01:55:54.611Z,95.61
2017-09-14T01:56:20.736Z,95.89
2017-09-14T01:56:46.859Z,95.7
2017-09-14T01:57:12.985Z,95.79
2017-09-14T01:57:39.116Z,95.7
2017-09-14T01:58:05.232Z,95.89
2017-09-14T01:58:31.357Z,95.89
2017-09-14T01:58:57.470Z,95.89
2017-09-14T01:59:23.590Z,95.89
2017-09-14T01:59:49.717Z,95.89
2017-09-14T02:00:15.836Z,95.79
2017-09-14T02:00:41.985Z,95.79
2017-09-14T02:01:08.103Z,96.56
2017-09-14T02:01:34.253Z,96.46
2017-09-14T02:02:00.377Z,96.46
2017-09-14T02:02:26.497Z,96.08
2017-09-14T02:02:52.622Z,95.98
2017-09-14T02:03:18.737Z,95.61
2017-09-14T02:03:44.858Z,95.89
2017-09-14T02:04:10.985Z,95.98
2017-09-14T02:04:37.103Z,95.98
2017-09-14T02:05:03.231Z,96.08
2017-09-14T02:05:29.356Z,95.98
2017-09-14T02:05:55.474Z,96.08
2017-09-14T02:06:21.614Z,96.27
2017-09-14T02:06:47.742Z,95.32
2017-09-14T02:07:13.865Z,95.7
2017-09-14T02:07:39.982Z,95.51
2017-09-14T02:08:06.108Z,96.17
2017-09-14T02:08:32.229Z,95.79
2017-09-14T02:08:58.349Z,96.08
2017-09-14T02:09:24.474Z,95.89
2017-09-14T02:09:50.592Z,95.61
2017-09-14T02:10:16.719Z,96.27
2017-09-14T02:10:42.843Z,96.27
2017-09-14T02:11:08.961Z,96.27
2017-09-14T02:11:35.090Z,96.46
2017-09-14T02:12:01.208Z,96.37
2017-09-14T02:12:27.332Z,96.08
2017-09-14T02:12:53.456Z,96.46
2017-09-14T02:13:19.579Z,96.27
2017-09-14T02:13:45.693Z,96.17
2017-09-14T02:14:11.816Z,96.17
2017-09-14T02:14:37.948Z,96.08
2017-09-14T02:15:04.058Z,96.27
2017-09-14T02:15:30.178Z,96.75
2017-09-14T02:15:56.308Z,96.84
2017-09-14T02:16:22.451Z,96.66
2017-09-14T02:16:48.575Z,96.56
2017-09-14T02:17:14.696Z,96.56
2017-09-14T02:17:40.837Z,96.37
2017-09-14T02:18:06.956Z,96.08
2017-09-14T02:18:33.086Z,96.17
2017-09-14T02:18:59.206Z,95.98
2017-09-14T02:19:25.330Z,96.37
2017-09-14T02:19:51.447Z,96.08
2017-09-14T02:20:17.564Z,96.08
2017-09-14T02:20:43.699Z,96.17
2017-09-14T02:21:09.825Z,96.08
2017-09-14T02:21:35.942Z,96.27
2017-09-14T02:22:02.065Z,96.46
2017-09-14T02:22:28.185Z,96.17
2017-09-14T02:22:54.302Z,96.27
2017-09-14T02:23:20.431Z,96.37
2017-09-14T02:23:46.554Z,95.98
2017-09-14T02:24:12.675Z,95.89
2017-09-14T02:24:38.798Z,95.98
2017-09-14T02:25:04.916Z,95.89
2017-09-14T02:25:31.037Z,96.08
2017-09-14T02:25:57.163Z,95.61
2017-09-14T02:26:23.288Z,95.89
2017-09-14T02:26:49.404Z,95.89
2017-09-14T02:27:15.531Z,96.08
2017-09-14T02:27:41.652Z,95.79
2017-09-14T02:28:07.778Z,95.89
2017-09-14T02:28:33.896Z,95.89
2017-09-14T02:29:00.017Z,96.17
2017-09-14T02:29:26.148Z,95.89
2017-09-14T02:29:52.267Z,95.89
2017-09-14T02:30:18.386Z,95.98
2017-09-14T02:30:44.506Z,95.98
2017-09-14T02:31:10.632Z,96.08
2017-09-14T02:31:36.774Z,96.08
2017-09-14T02:32:02.895Z,95.41
2017-09-14T02:32:29.020Z,96.08
2017-09-14T02:32:55.137Z,95.61
2017-09-14T02:33:21.263Z,95.7
2017-09-14T02:33:47.381Z,96.08
2017-09-14T02:34:13.502Z,96.37
2017-09-14T02:34:39.632Z,95.89
2017-09-14T02:35:05.759Z,96.17
2017-09-14T02:35:31.878Z,95.61
2017-09-14T02:35:57.996Z,95.61
2017-09-14T02:36:24.124Z,96.03
2017-09-14T02:36:50.240Z,95.94
2017-09-14T02:37:16.363Z,95.84
2017-09-14T02:37:42.493Z,95.94
2017-09-14T02:38:08.611Z,96.03
2017-09-14T02:38:34.732Z,96.03
2017-09-14T02:39:00.849Z,95.46
2017-09-14T02:39:26.972Z,95.56
2017-09-14T02:39:53.101Z,96.03
2017-09-14T02:40:19.214Z,96.03
2017-09-14T02:40:45.335Z,96.03
2017-09-14T02:41:11.462Z,95.84
2017-09-14T02:41:37.582Z,95.36
2017-09-14T02:42:03.707Z,95.56
2017-09-14T02:42:29.834Z,95.56
2017-09-14T02:42:55.954Z,95.84
2017-09-14T02:43:22.076Z,95.56
2017-09-14T02:43:48.197Z,95.65
2017-09-14T02:44:14.317Z,95.27
2017-09-14T02:44:40.443Z,96.03
2017-09-14T02:45:06.568Z,95.65
2017-09-14T02:45:32.711Z,95.84
2017-09-14T02:45:58.828Z,95.84
2017-09-14T02:46:24.956Z,95.46
2017-09-14T02:46:51.074Z,95.17
2017-09-14T02:47:17.207Z,95.27
2017-09-14T02:47:43.324Z,95.36
2017-09-14T02:48:09.470Z,95.46
2017-09-14T02:48:35.694Z,95.46
2017-09-14T02:49:01.818Z,95.36
2017-09-14T02:49:27.955Z,95.46
2017-09-14T02:49:54.076Z,95.46
2017-09-14T02:50:20.248Z,95.36
2017-09-14T02:50:46.435Z,95.17
2017-09-14T02:51:12.633Z,95.17
2017-09-14T02:51:38.747Z,95.27
2017-09-14T02:52:04.890Z,95.46
2017-09-14T02:52:31.170Z,95.08
2017-09-14T02:52:57.289Z,95.08
2017-09-14T02:53:23.406Z,95.27
2017-09-14T02:53:49.535Z,94.89
2017-09-14T02:54:15.701Z,95.08
2017-09-14T02:54:41.826Z,95.36
2017-09-14T02:55:08.015Z,95.17
2017-09-14T02:55:34.097Z,95.46
2017-09-14T02:56:00.219Z,94.98
2017-09-14T02:56:26.346Z,95.27
2017-09-14T02:56:52.487Z,94.7
2017-09-14T02:57:18.613Z,94.84
2017-09-14T02:57:44.737Z,94.93
2017-09-14T02:58:10.893Z,94.84
2017-09-14T02:58:37.045Z,94.98
2017-09-14T02:59:03.209Z,94.55
2017-09-14T02:59:29.336Z,94.93
2017-09-14T02:59:55.456Z,94.41
2017-09-14T03:00:21.574Z,94.6
2017-09-14T03:00:47.696Z,94.36
2017-09-14T03:01:13.813Z,94.31
2017-09-14T03:01:39.936Z,94.36
2017-09-14T03:02:06.070Z,94.65
2017-09-14T03:02:32.189Z,94.65
2017-09-14T03:02:58.309Z,94.36
2017-09-14T03:03:24.427Z,94.84
2017-09-14T03:03:50.549Z,94.27
2017-09-14T03:04:16.674Z,94.36
2017-09-14T03:04:42.795Z,94.36
2017-09-14T03:05:08.913Z,94.17
2017-09-14T03:05:35.039Z,93.98
2017-09-14T03:06:01.163Z,93.98
2017-09-14T03:06:27.284Z,93.98
2017-09-14T03:06:53.411Z,93.79
2017-09-14T03:07:19.538Z,93.93
2017-09-14T03:07:45.657Z,94.27
2017-09-14T03:08:11.785Z,94.27
2017-09-14T03:08:37.905Z,94.36
2017-09-14T03:09:04.028Z,94.07
2017-09-14T03:09:30.144Z,93.98
2017-09-14T03:09:56.274Z,94.17
2017-09-14T03:10:22.414Z,94.27
2017-09-14T03:10:48.534Z,93.98
2017-09-14T03:11:14.659Z,93.7
2017-09-14T03:11:40.778Z,93.88
2017-09-14T03:12:06.928Z,93.7
2017-09-14T03:12:33.022Z,93.88
2017-09-14T03:12:59.145Z,93.88
2017-09-14T03:13:25.271Z,93.7
2017-09-14T03:13:51.389Z,94.07
2017-09-14T03:14:17.511Z,94.17
2017-09-14T03:14:43.655Z,94.27
2017-09-14T03:15:09.774Z,94.65
2017-09-14T03:15:35.899Z,94.46
2017-09-14T03:16:02.017Z,94.89
2017-09-14T03:16:28.139Z,94.51
2017-09-14T03:16:54.266Z,94.65
2017-09-14T03:17:20.386Z,94.51
2017-09-14T03:17:46.507Z,94.22
2017-09-14T03:18:12.632Z,94.22
2017-09-14T03:18:38.756Z,94.46
2017-09-14T03:19:04.870Z,94.65
2017-09-14T03:19:30.998Z,94.41
2017-09-14T03:19:57.118Z,94.22
2017-09-14T03:20:23.242Z,94.7
2017-09-14T03:20:49.369Z,94.89
2017-09-14T03:21:15.485Z,94.98
2017-09-14T03:21:41.612Z,95.08
2017-09-14T03:22:07.729Z,95.08
2017-09-14T03:22:33.876Z,94.89
2017-09-14T03:23:00.026Z,94.79
2017-09-14T03:23:26.119Z,94.74
2017-09-14T03:23:52.237Z,94.41
2017-09-14T03:24:18.353Z,94.65
2017-09-14T03:24:44.473Z,94.36
2017-09-14T03:25:10.597Z,94.46
2017-09-14T03:25:36.721Z,94.36
2017-09-14T03:26:02.838Z,94.93
2017-09-14T03:26:28.962Z,94.93
2017-09-14T03:26:55.087Z,94.84
2017-09-14T03:27:21.205Z,94.74
2017-09-14T03:27:47.336Z,94.55
2017-09-14T03:28:13.453Z,94.41
2017-09-14T03:28:39.580Z,94.74
2017-09-14T03:29:05.697Z,94.74
2017-09-14T03:29:31.823Z,94.74
2017-09-14T03:29:57.946Z,94.65
2017-09-14T03:30:24.068Z,94.74
2017-09-14T03:30:50.194Z,94.84
2017-09-14T03:31:16.313Z,94.46
2017-09-14T03:31:42.434Z,94.65
2017-09-14T03:32:08.559Z,94.51
2017-09-14T03:32:34.682Z,94.36
2017-09-14T03:33:00.801Z,94.65
2017-09-14T03:33:26.921Z,94.46
2017-09-14T03:33:53.047Z,94.31
2017-09-14T03:34:19.184Z,95.08
2017-09-14T03:34:45.311Z,94.79
2017-09-14T03:35:11.429Z,94.98
2017-09-14T03:35:37.556Z,95.46
2017-09-14T03:36:03.673Z,95.27
2017-09-14T03:36:29.802Z,95.27
2017-09-14T03:36:55.920Z,95.27
2017-09-14T03:37:22.043Z,95.27
2017-09-14T03:37:48.170Z,95.27
2017-09-14T03:38:14.288Z,95.84
2017-09-14T03:38:40.414Z,95.56
2017-09-14T03:39:06.535Z,96.22
2017-09-14T03:39:32.653Z,95.94
2017-09-14T03:39:58.779Z,95.36
2017-09-14T03:40:24.896Z,95.56
2017-09-14T03:40:51.022Z,95.84
2017-09-14T03:41:17.146Z,95.65
2017-09-14T03:41:43.262Z,95.56
2017-09-14T03:42:09.383Z,95.56
2017-09-14T03:42:35.511Z,95.46
2017-09-14T03:43:01.634Z,95.94
2017-09-14T03:43:27.751Z,95.56
2017-09-14T03:43:53.879Z,96.03
2017-09-14T03:44:19.997Z,95.75
2017-09-14T03:44:46.117Z,95.84
2017-09-14T03:45:12.245Z,95.94
2017-09-14T03:45:38.370Z,95.98
2017-09-14T03:46:04.487Z,95.84
2017-09-14T03:46:30.614Z,95.89
2017-09-14T03:46:56.734Z,96.08
2017-09-14T03:47:22.873Z,95.7
2017-09-14T03:47:49.003Z,95.41
2017-09-14T03:48:15.126Z,95.32
2017-09-14T03:48:41.242Z,95.41
2017-09-14T03:49:07.370Z,95.61
2017-09-14T03:49:33.486Z,95.32
2017-09-14T03:49:59.606Z,95.41
2017-09-14T03:50:25.736Z,95.61
2017-09-14T03:50:51.862Z,95.51
2017-09-14T03:51:17.980Z,95.51
2017-09-14T03:51:44.105Z,95.41
2017-09-14T03:52:10.222Z,95.32
2017-09-14T03:52:36.341Z,95.46
2017-09-14T03:53:02.462Z,96.08
2017-09-14T03:53:28.586Z,96.08
2017-09-14T03:53:54.710Z,96.08
2017-09-14T03:54:20.830Z,95.89
2017-09-14T03:54:46.971Z,95.61
2017-09-14T03:55:13.095Z,96.17
2017-09-14T03:55:39.218Z,96.75
2017-09-14T03:56:05.341Z,96.56
2017-09-14T03:56:31.459Z,96.37
2017-09-14T03:56:57.592Z,96.66
2017-09-14T03:57:23.733Z,96.94
2017-09-14T03:57:49.856Z,96.84
2017-09-14T03:58:15.988Z,96.84
2017-09-14T03:58:42.114Z,96.94
2017-09-14T03:59:08.232Z,96.56
2017-09-14T03:59:34.356Z,96.51
2017-09-14T04:00:00.470Z,96.32
2017-09-14T04:00:26.613Z,96.75
2017-09-14T04:00:52.733Z,96.51
2017-09-14T04:01:18.863Z,96.46
2017-09-14T04:01:44.981Z,96.46
2017-09-14T04:02:11.107Z,96.46
2017-09-14T04:02:37.227Z,96.56
2017-09-14T04:03:03.346Z,96.27
2017-09-14T04:03:29.472Z,96.27
2017-09-14T04:03:55.588Z,96.46
2017-09-14T04:04:21.736Z,96.75
2017-09-14T04:04:47.860Z,96.61
2017-09-14T04:05:13.981Z,96.56
2017-09-14T04:05:40.104Z,96.66
2017-09-14T04:06:06.221Z,96.56
2017-09-14T04:06:32.342Z,96.66
2017-09-14T04:06:58.466Z,96.75
2017-09-14T04:07:24.584Z,96.84
2017-09-14T04:07:50.709Z,96.27
2017-09-14T04:08:16.836Z,96.37
2017-09-14T04:08:42.952Z,95.79
2017-09-14T04:09:09.079Z,96.46
2017-09-14T04:09:35.196Z,96.46
2017-09-14T04:10:01.325Z,96.08
2017-09-14T04:10:27.443Z,95.61
2017-09-14T04:10:53.565Z,95.89
2017-09-14T04:11:19.689Z,95.41
2017-09-14T04:11:45.809Z,95.7
2017-09-14T04:12:11.936Z,95.98
2017-09-14T04:12:38.056Z,95.79
2017-09-14T04:13:04.183Z,95.89
2017-09-14T04:13:30.308Z,95.89
2017-09-14T04:13:56.430Z,95.89
2017-09-14T04:14:22.551Z,96.08
2017-09-14T04:14:48.666Z,96.08
2017-09-14T04:15:14.795Z,96.17
2017-09-14T04:15:40.917Z,96.08
2017-09-14T04:16:07.044Z,95.61
2017-09-14T04:16:33.169Z,96.08
2017-09-14T04:16:59.284Z,96.37
2017-09-14T04:17:25.410Z,96.46
2017-09-14T04:17:51.533Z,96.46
2017-09-14T04:18:17.657Z,96.27
2017-09-14T04:18:43.785Z,96.08
2017-09-14T04:19:09.896Z,96.37
2017-09-14T04:19:36.017Z,96.17
2017-09-14T04:20:02.143Z,96.37
2017-09-14T04:20:28.264Z,96.46
2017-09-14T04:20:54.387Z,96.46
2017-09-14T04:21:20.508Z,96.46
2017-09-14T04:21:46.640Z,96.27
2017-09-14T04:22:12.789Z,96.08
2017-09-14T04:22:38.911Z,96.37
2017-09-14T04:23:05.029Z,96.27
2017-09-14T04:23:31.150Z,96.27
2017-09-14T04:23:57.272Z,96.75
2017-09-14T04:24:23.389Z,96.75
2017-09-14T04:24:49.515Z,96.08
2017-09-14T04:25:15.640Z,96.37
2017-09-14T04:25:41.757Z,96.56
2017-09-14T04:26:07.880Z,96.66
2017-09-14T04:26:34.006Z,96.27
2017-09-14T04:27:00.124Z,96.56
2017-09-14T04:27:26.245Z,96.75
2017-09-14T04:27:52.370Z,96.7
2017-09-14T04:28:18.515Z,96.75
2017-09-14T04:28:44.641Z,96.66
2017-09-14T04:29:10.760Z,96.75
2017-09-14T04:29:36.883Z,96.84
2017-09-14T04:30:03.011Z,96.66
2017-09-14T04:30:29.121Z,96.42
2017-09-14T04:30:55.246Z,96.89
2017-09-14T04:31:21.367Z,96.94
2017-09-14T04:31:47.486Z,96.7
2017-09-14T04:32:13.613Z,96.7
2017-09-14T04:32:39.729Z,96.98
2017-09-14T04:33:05.854Z,96.89
2017-09-14T04:33:31.984Z,96.98
2017-09-14T04:33:58.100Z,96.84
2017-09-14T04:34:24.228Z,97.23
2017-09-14T04:34:50.346Z,96.42
2017-09-14T04:35:16.464Z,96.66
2017-09-14T04:35:42.592Z,96.46
2017-09-14T04:36:08.710Z,96.75
2017-09-14T04:36:34.835Z,96.75
2017-09-14T04:37:00.960Z,96.32
2017-09-14T04:37:27.078Z,96.61
2017-09-14T04:37:53.202Z,96.61
2017-09-14T04:38:19.321Z,96.8
2017-09-14T04:38:45.435Z,96.98
2017-09-14T04:39:11.566Z,96.8
2017-09-14T04:39:37.681Z,96.89
2017-09-14T04:40:03.807Z,96.89
2017-09-14T04:40:29.930Z,97.75
2017-09-14T04:40:56.049Z,97.56
2017-09-14T04:41:22.174Z,97.47
2017-09-14T04:41:48.294Z,97.27
2017-09-14T04:42:14.421Z,97.56
2017-09-14T04:42:40.540Z,97.47
2017-09-14T04:43:06.668Z,97.56
2017-09-14T04:43:32.789Z,97.56
2017-09-14T04:43:58.911Z,97.37
2017-09-14T04:44:25.038Z,97.56
2017-09-14T04:44:51.156Z,97.27
2017-09-14T04:45:17.277Z,97.27
2017-09-14T04:45:43.394Z,97.75
2017-09-14T04:46:09.522Z,97.56
2017-09-14T04:46:35.645Z,97.47
2017-09-14T04:47:01.766Z,97.47
2017-09-14T04:47:27.889Z,97.66
2017-09-14T04:47:54.012Z,97.18
2017-09-14T04:48:20.136Z,97.18
2017-09-14T04:48:46.251Z,97.47
2017-09-14T04:49:12.373Z,97.37
2017-09-14T04:49:38.497Z,97.37
2017-09-14T04:50:04.615Z,97.75
2017-09-14T04:50:30.745Z,97.56
2017-09-14T04:50:56.864Z,97.56
2017-09-14T04:51:22.989Z,97.75
2017-09-14T04:51:49.126Z,97.18
2017-09-14T04:52:15.233Z,97.37
2017-09-14T04:52:41.357Z,97.47
2017-09-14T04:53:07.477Z,97.27
2017-09-14T04:53:33.604Z,97.66
2017-09-14T04:53:59.723Z,97.27
2017-09-14T04:54:25.848Z,97.27
2017-09-14T04:54:51.965Z,97.66
2017-09-14T04:55:18.114Z,98.13
2017-09-14T04:55:44.237Z,97.94
2017-09-14T04:56:10.355Z,98.23
2017-09-14T04:56:36.482Z,98.32
2017-09-14T04:57:02.600Z,98.42
2017-09-14T04:57:28.723Z,98.03
2017-09-14T04:57:54.870Z,98.42
2017-09-14T04:58:20.988Z,97.75
2017-09-14T04:58:47.110Z,98.13
2017-09-14T04:59:13.236Z,97.75
2017-09-14T04:59:39.353Z,97.66
2017-09-14T05:00:05.480Z,97.75
2017-09-14T05:00:31.602Z,97.66
2017-09-14T05:00:57.742Z,97.85
2017-09-14T05:01:23.865Z,97.94
2017-09-14T05:01:49.989Z,97.47
2017-09-14T05:02:16.130Z,97.75
2017-09-14T05:02:42.249Z,97.66
2017-09-14T05:03:08.380Z,97.56
2017-09-14T05:03:34.506Z,97.56
2017-09-14T05:04:00.625Z,98.13
2017-09-14T05:04:26.744Z,97.94
2017-09-14T05:04:52.861Z,97.75
2017-09-14T05:05:18.989Z,97.66
2017-09-14T05:05:45.116Z,98.42
2017-09-14T05:06:11.230Z,98.13
2017-09-14T05:06:37.356Z,97.94
2017-09-14T05:07:03.480Z,97.75
2017-09-14T05:07:29.604Z,97.75
2017-09-14T05:07:55.727Z,97.75
2017-09-14T05:08:21.847Z,97.66
2017-09-14T05:08:47.963Z,97.27
2017-09-14T05:09:14.090Z,97.47
2017-09-14T05:09:40.212Z,97.37
2017-09-14T05:10:06.356Z,97.56
2017-09-14T05:10:32.476Z,97.47
2017-09-14T05:10:58.596Z,97.37
2017-09-14T05:11:24.719Z,97.66
2017-09-14T05:11:50.848Z,97.56
2017-09-14T05:12:16.987Z,97.18
2017-09-14T05:12:43.106Z,97.56
2017-09-14T05:13:09.233Z,97.75
2017-09-14T05:13:35.350Z,96.8
2017-09-14T05:14:01.473Z,96.89
2017-09-14T05:14:27.596Z,96.89
2017-09-14T05:14:53.722Z,96.61
2017-09-14T05:15:19.838Z,97.08
2017-09-14T05:15:45.967Z,96.8
2017-09-14T05:16:12.092Z,96.7
2017-09-14T05:16:38.208Z,97.18
2017-09-14T05:17:04.337Z,96.61
2017-09-14T05:17:30.456Z,96.7
2017-09-14T05:17:56.574Z,96.03
2017-09-14T05:18:22.701Z,95.84
2017-09-14T05:18:48.826Z,96.32
2017-09-14T05:19:14.943Z,96.51
2017-09-14T05:19:41.063Z,96.32
2017-09-14T05:20:07.190Z,96.61
2017-09-14T05:20:33.308Z,96.03
2017-09-14T05:20:59.436Z,95.94
2017-09-14T05:21:25.563Z,96.22
2017-09-14T05:21:51.678Z,96.32
2017-09-14T05:22:17.807Z,96.89
2017-09-14T05:22:43.918Z,96.32
2017-09-14T05:23:10.043Z,96.42
2017-09-14T05:23:36.161Z,96.03
2017-09-14T05:24:02.288Z,96.42
2017-09-14T05:24:28.415Z,96.42
2017-09-14T05:24:54.533Z,96.32
2017-09-14T05:25:20.654Z,96.03
2017-09-14T05:25:46.780Z,96.03
2017-09-14T05:26:12.909Z,96.13
2017-09-14T05:26:39.033Z,96.32
2017-09-14T05:27:05.149Z,96.03
2017-09-14T05:27:31.282Z,96.03
2017-09-14T05:27:57.396Z,96.32
2017-09-14T05:28:23.513Z,96.13
2017-09-14T05:28:49.638Z,96.22
2017-09-14T05:29:15.761Z,96.42
2017-09-14T05:29:41.885Z,96.22
2017-09-14T05:30:08.011Z,96.42
2017-09-14T05:30:34.127Z,96.32
2017-09-14T05:31:00.252Z,96.22
2017-09-14T05:31:26.372Z,96.13
2017-09-14T05:31:52.493Z,96.13
2017-09-14T05:32:18.624Z,96.32
2017-09-14T05:32:44.745Z,95.94
2017-09-14T05:33:10.861Z,96.42
2017-09-14T05:33:36.983Z,95.56
2017-09-14T05:34:03.110Z,95.84
2017-09-14T05:34:29.224Z,95.75
2017-09-14T05:34:55.349Z,95.75
2017-09-14T05:35:21.473Z,95.75
2017-09-14T05:35:47.593Z,95.75
2017-09-14T05:36:13.721Z,95.84
2017-09-14T05:36:39.840Z,95.46
2017-09-14T05:37:05.961Z,95.27